Time;durP1;ratioP1;P1;durP2;ratioP2;P2;SDS_P1;SDS_P2;PMS_P1;PMS_P2;Temp;Humidity;BMP_temperature;BMP_pressure;BME280_temperature;BME280_humidity;BME280_pressure;Samples;Min_cycle;Max_cycle;Signal;HPM_P1;HPM_P2
2023/02/06 00:01:44;;;;;;;3.25;1.33;;;7.30;99.90;;;;;;5004950;28;20216;-47
2023/02/06 00:04:13;;;;;;;4.45;1.45;;;7.30;99.90;;;;;;5006504;28;20204;-46
2023/02/06 00:06:42;;;;;;;2.72;1.30;;;7.30;99.90;;;;;;5001600;28;20223;-47
2023/02/06 00:09:11;;;;;;;2.88;1.42;;;7.30;99.90;;;;;;5006914;28;20542;-47
2023/02/06 00:11:40;;;;;;;4.13;1.60;;;7.30;99.90;;;;;;5000046;28;20223;-47
2023/02/06 00:14:10;;;;;;;3.47;1.48;;;7.30;99.90;;;;;;5008316;28;20219;-45
2023/02/06 00:16:38;;;;;;;3.05;1.40;;;7.30;99.90;;;;;;5000382;28;20569;-47
2023/02/06 00:19:07;;;;;;;2.38;1.20;;;7.30;99.90;;;;;;5005888;28;20587;-48
2023/02/06 00:21:35;;;;;;;2.25;0.90;;;7.30;99.90;;;;;;5007484;28;20382;-45
2023/02/06 00:24:04;;;;;;;5.15;1.33;;;7.30;99.90;;;;;;5006430;28;20440;-48
2023/02/06 00:26:33;;;;;;;2.03;0.93;;;7.20;99.90;;;;;;5004735;28;20635;-48
2023/02/06 00:29:01;;;;;;;2.95;1.27;;;7.30;99.90;;;;;;5004082;28;20196;-48
2023/02/06 00:31:31;;;;;;;5.63;1.73;;;7.30;99.90;;;;;;5006341;28;20539;-48
2023/02/06 00:34:00;;;;;;;3.55;1.52;;;7.30;99.90;;;;;;5022647;28;20674;-48
2023/02/06 00:36:28;;;;;;;3.20;1.58;;;7.20;99.90;;;;;;5015976;28;20227;-47
2023/02/06 00:38:57;;;;;;;4.18;1.63;;;7.20;99.90;;;;;;5007379;28;20747;-47
2023/02/06 00:41:26;;;;;;;3.25;1.55;;;7.20;99.90;;;;;;5013330;28;20216;-47
2023/02/06 00:43:54;;;;;;;6.45;2.30;;;7.20;99.90;;;;;;5018911;28;20222;-48
2023/02/06 00:46:24;;;;;;;3.75;1.80;;;7.20;99.90;;;;;;5015408;28;20605;-47
2023/02/06 00:48:54;;;;;;;3.92;1.27;;;7.20;99.90;;;;;;5020419;28;20283;-47
2023/02/06 00:51:23;;;;;;;6.00;1.70;;;7.20;99.90;;;;;;5021255;28;20286;-48
2023/02/06 00:53:51;;;;;;;2.22;1.00;;;7.20;99.90;;;;;;5018078;28;20196;-46
2023/02/06 00:56:20;;;;;;;2.90;1.70;;;7.20;99.90;;;;;;5004654;28;20208;-49
2023/02/06 00:58:48;;;;;;;3.63;2.40;;;7.20;99.90;;;;;;5006278;28;20629;-48
2023/02/06 01:01:18;;;;;;;6.47;1.45;;;7.20;99.90;;;;;;5012045;28;20614;-47
2023/02/06 01:03:47;;;;;;;2.55;1.00;;;7.20;99.90;;;;;;5021497;28;20607;-48
2023/02/06 01:06:17;;;;;;;3.97;1.02;;;7.20;99.90;;;;;;5011199;28;20625;-47
2023/02/06 01:08:47;;;;;;;3.08;1.55;;;7.20;99.90;;;;;;5004428;28;20204;-46
2023/02/06 01:11:18;;;;;;;4.57;1.52;;;7.20;99.90;;;;;;5000943;28;20232;-47
2023/02/06 01:13:47;;;;;;;4.90;1.15;;;7.20;99.90;;;;;;5017767;28;20223;-48
2023/02/06 01:16:18;;;;;;;2.75;1.40;;;7.20;99.90;;;;;;5009107;28;20243;-46
2023/02/06 01:18:47;;;;;;;2.00;0.98;;;7.20;99.90;;;;;;5004922;28;20259;-48
2023/02/06 01:21:20;;;;;;;2.58;1.05;;;7.20;99.90;;;;;;5021297;28;20215;-46
2023/02/06 01:23:50;;;;;;;3.47;1.30;;;7.20;99.90;;;;;;5008932;28;20776;-48
2023/02/06 01:26:21;;;;;;;2.40;1.00;;;7.20;99.90;;;;;;5000692;28;20238;-47
2023/02/06 01:28:50;;;;;;;2.80;1.15;;;7.20;99.90;;;;;;5006687;28;20195;-45
2023/02/06 01:31:22;;;;;;;3.03;1.52;;;7.20;99.90;;;;;;5013526;28;20251;-48
2023/02/06 01:33:52;;;;;;;1.73;1.50;;;7.20;99.90;;;;;;4980595;28;20197;-46
2023/02/06 01:36:22;;;;;;;2.80;1.45;;;7.20;99.90;;;;;;5009680;28;20417;-47
2023/02/06 01:38:51;;;;;;;2.22;1.33;;;7.20;99.90;;;;;;5005061;28;20323;-46
2023/02/06 01:41:22;;;;;;;3.45;1.65;;;7.20;99.90;;;;;;5003395;28;20227;-47
2023/02/06 01:44:14;;;;;;;2.33;0.93;;;7.20;99.90;;;;;;5007052;28;20633;-46
2023/02/06 01:46:45;;;;;;;4.07;1.77;;;7.20;99.90;;;;;;5002429;28;20220;-47
2023/02/06 01:49:17;;;;;;;4.90;1.40;;;7.20;99.90;;;;;;5019154;28;20291;-47
2023/02/06 01:51:48;;;;;;;3.15;1.42;;;7.10;99.90;;;;;;4998833;28;20231;-47
2023/02/06 01:54:17;;;;;;;2.85;1.23;;;7.20;99.90;;;;;;5013235;28;20288;-46
2023/02/06 01:56:49;;;;;;;2.63;1.10;;;7.10;99.90;;;;;;5009941;28;20774;-46
2023/02/06 01:59:19;;;;;;;3.10;1.10;;;7.10;99.90;;;;;;5018677;28;20689;-47
2023/02/06 02:01:48;;;;;;;1.40;1.05;;;7.10;99.90;;;;;;4998852;28;20239;-47
2023/02/06 02:04:20;;;;;;;3.00;1.52;;;7.10;99.90;;;;;;5018435;28;20216;-46
2023/02/06 02:07:02;;;;;;;1.95;1.23;;;7.10;99.90;;;;;;5002537;28;20226;-46
2023/02/06 02:09:33;;;;;;;7.95;2.28;;;7.10;99.90;;;;;;5005196;28;20195;-47
2023/02/06 02:12:02;;;;;;;2.90;1.30;;;7.10;99.90;;;;;;5019281;28;20235;-47
2023/02/06 02:14:31;;;;;;;2.17;1.10;;;7.10;99.90;;;;;;5019855;28;20679;-47
2023/02/06 02:17:22;;;;;;;2.15;1.38;;;7.10;99.90;;;;;;5017071;28;20199;-48
2023/02/06 02:20:42;;;;;;;3.42;1.65;;;7.10;99.90;;;;;;5018845;28;20204;-48
2023/02/06 02:23:25;;;;;;;5.68;2.03;;;7.10;99.90;;;;;;4971715;28;20240;-46
2023/02/06 02:26:28;;;;;;;4.05;1.33;;;7.10;99.90;;;;;;4967301;28;20192;-47
2023/02/06 02:29:45;;;;;;;6.25;1.30;;;7.10;99.90;;;;;;5003185;28;20192;-46
2023/02/06 02:32:45;;;;;;;2.50;1.08;;;7.10;99.90;;;;;;5019110;28;20239;-47
2023/02/06 02:35:31;;;;;;;3.97;1.38;;;7.10;99.90;;;;;;5008847;28;20201;-47
2023/02/06 02:38:11;;;;;;;4.68;1.35;;;7.10;99.90;;;;;;5024265;28;20283;-45
2023/02/06 02:40:49;;;;;;;5.95;1.27;;;7.10;99.90;;;;;;4996058;28;20234;-48
2023/02/06 02:43:28;;;;;;;5.22;1.70;;;7.10;99.90;;;;;;5015082;28;20238;-48
2023/02/06 02:46:02;;;;;;;1.20;1.10;;;7.10;99.90;;;;;;5010796;28;20229;-47
2023/02/06 02:48:35;;;;;;;2.53;1.40;;;7.10;99.90;;;;;;5006685;28;20205;-46
2023/02/06 02:51:07;;;;;;;2.75;1.25;;;7.10;99.90;;;;;;5016084;28;20223;-48
2023/02/06 02:53:36;;;;;;;2.90;1.17;;;7.10;99.90;;;;;;5024950;28;20261;-47
2023/02/06 02:56:16;;;;;;;4.95;1.25;;;7.10;99.90;;;;;;5008232;28;20258;-48
2023/02/06 02:58:48;;;;;;;2.15;1.20;;;7.10;99.90;;;;;;5020191;28;20657;-46
2023/02/06 03:01:22;;;;;;;3.17;1.60;;;7.10;99.90;;;;;;5006729;28;20227;-48
2023/02/06 03:03:54;;;;;;;3.60;1.35;;;7.10;99.90;;;;;;5023767;28;20703;-46
2023/02/06 03:06:43;;;;;;;1.73;1.00;;;7.10;99.90;;;;;;5009325;28;20528;-47
2023/02/06 03:09:20;;;;;;;1.83;1.20;;;7.00;99.90;;;;;;5022311;28;20211;-47
2023/02/06 03:11:59;;;;;;;1.42;1.20;;;7.00;99.90;;;;;;5016398;28;20278;-46
2023/02/06 03:14:33;;;;;;;2.33;0.95;;;7.00;99.90;;;;;;5024231;28;20192;-48
2023/02/06 03:17:06;;;;;;;1.25;0.85;;;7.00;99.90;;;;;;5008995;28;20579;-48
2023/02/06 03:19:39;;;;;;;2.70;1.40;;;7.00;99.90;;;;;;5008390;28;20609;-46
2023/02/06 03:22:10;;;;;;;2.38;1.20;;;7.00;99.90;;;;;;5019393;28;20216;-48
2023/02/06 03:24:40;;;;;;;2.05;1.02;;;7.00;99.90;;;;;;5000777;28;20226;-46
2023/02/06 03:27:13;;;;;;;2.55;1.48;;;7.00;99.90;;;;;;5006400;28;20209;-47
2023/02/06 03:29:43;;;;;;;3.72;1.67;;;7.00;99.90;;;;;;5002294;28;20627;-48
2023/02/06 03:32:16;;;;;;;2.33;1.20;;;7.00;99.90;;;;;;4999599;28;21056;-48
2023/02/06 03:34:53;;;;;;;4.15;1.33;;;7.00;99.90;;;;;;5020240;28;20483;-49
2023/02/06 03:37:24;;;;;;;1.80;1.70;;;7.00;99.90;;;;;;5006862;28;20227;-46
2023/02/06 03:39:52;;;;;;;6.18;1.70;;;7.00;99.90;;;;;;5022711;28;20210;-48
2023/02/06 03:42:22;;;;;;;2.03;1.35;;;7.00;99.90;;;;;;5015773;28;20225;-48
2023/02/06 03:45:03;;;;;;;5.10;1.90;;;7.00;99.90;;;;;;5006290;28;20220;-47
2023/02/06 03:47:33;;;;;;;2.58;1.10;;;7.00;99.90;;;;;;5004980;28;20221;-47
2023/02/06 03:50:02;;;;;;;5.30;1.60;;;7.00;99.90;;;;;;5007285;28;20243;-48
2023/02/06 03:52:38;;;;;;;1.85;1.40;;;7.00;99.90;;;;;;5004718;28;20223;-49
2023/02/06 03:55:12;;;;;;;4.38;1.25;;;7.00;99.90;;;;;;5006401;28;20206;-46
2023/02/06 03:57:44;;;;;;;2.65;1.38;;;7.00;99.90;;;;;;4999334;28;20285;-47
2023/02/06 04:00:13;;;;;;;3.08;1.50;;;6.90;99.90;;;;;;5020845;28;20200;-47
2023/02/06 04:02:44;;;;;;;1.80;1.60;;;7.00;99.90;;;;;;4995958;28;20266;-48
2023/02/06 04:05:13;;;;;;;2.28;1.40;;;7.00;99.90;;;;;;5007005;28;20218;-47
2023/02/06 04:07:43;;;;;;;3.90;1.38;;;6.90;99.90;;;;;;5021278;28;20230;-48
2023/02/06 04:10:12;;;;;;;4.25;1.52;;;6.90;99.90;;;;;;5007378;28;20224;-47
2023/02/06 04:12:41;;;;;;;2.45;1.40;;;6.90;99.90;;;;;;5000038;28;20224;-46
2023/02/06 04:15:10;;;;;;;4.57;1.85;;;6.90;99.90;;;;;;5011496;28;20543;-47
2023/02/06 04:17:38;;;;;;;2.85;1.30;;;6.90;99.90;;;;;;4996171;28;20640;-45
2023/02/06 04:20:25;;;;;;;3.78;1.75;;;6.90;99.90;;;;;;5015806;28;20254;-47
2023/02/06 04:22:54;;;;;;;5.50;1.60;;;6.90;99.90;;;;;;5005766;28;20274;-46
2023/02/06 04:25:23;;;;;;;2.47;1.02;;;6.90;99.90;;;;;;5006370;28;20227;-47
2023/02/06 04:27:52;;;;;;;1.45;1.27;;;6.90;99.90;;;;;;5003576;28;20310;-45
2023/02/06 04:30:21;;;;;;;3.13;1.55;;;6.90;99.90;;;;;;5023915;28;20211;-46
2023/02/06 04:32:50;;;;;;;1.35;1.20;;;6.90;99.90;;;;;;4997954;28;20702;-48
2023/02/06 04:35:19;;;;;;;3.50;1.10;;;6.90;99.90;;;;;;5022547;28;20214;-47
2023/02/06 04:37:47;;;;;;;2.83;1.10;;;6.90;99.90;;;;;;5003663;28;20343;-47
2023/02/06 04:40:18;;;;;;;5.57;2.03;;;6.90;99.90;;;;;;5020831;28;20207;-46
2023/02/06 04:42:47;;;;;;;2.42;1.77;;;6.90;99.90;;;;;;5010054;28;20227;-48
2023/02/06 04:45:16;;;;;;;2.05;1.40;;;6.90;99.90;;;;;;5006121;28;20224;-47
2023/02/06 04:47:48;;;;;;;3.08;1.10;;;6.90;99.90;;;;;;5002512;28;20231;-47
2023/02/06 04:50:16;;;;;;;3.63;1.20;;;6.90;99.90;;;;;;5020662;28;20211;-46
2023/02/06 04:52:46;;;;;;;3.85;1.45;;;6.80;99.90;;;;;;5010223;28;20212;-46
2023/02/06 04:55:18;;;;;;;4.43;1.58;;;6.90;99.90;;;;;;5007878;28;20187;-49
2023/02/06 04:57:46;;;;;;;3.80;1.30;;;6.90;99.90;;;;;;5007113;28;20273;-46
2023/02/06 05:00:16;;;;;;;1.40;1.20;;;6.90;99.90;;;;;;5003152;28;20196;-48
2023/02/06 05:02:44;;;;;;;4.13;2.00;;;6.90;99.90;;;;;;4998765;28;20230;-46
2023/02/06 05:05:13;;;;;;;1.60;1.05;;;6.90;99.90;;;;;;5002029;28;20312;-47
2023/02/06 05:07:42;;;;;;;3.70;1.60;;;6.80;99.90;;;;;;5005203;28;20215;-47
2023/02/06 05:10:10;;;;;;;4.35;1.33;;;6.90;99.90;;;;;;5006688;28;20207;-49
2023/02/06 05:12:43;;;;;;;1.13;0.98;;;6.90;99.90;;;;;;5000597;28;20224;-47
2023/02/06 05:15:11;;;;;;;2.33;1.52;;;6.90;99.90;;;;;;5006739;28;20220;-46
2023/02/06 05:17:40;;;;;;;2.90;1.50;;;6.90;99.90;;;;;;5011592;28;20257;-48
2023/02/06 05:20:09;;;;;;;2.65;1.20;;;6.90;99.90;;;;;;5006301;28;20219;-47
2023/02/06 05:22:38;;;;;;;2.35;1.10;;;6.80;99.90;;;;;;5000540;28;20230;-48
2023/02/06 05:25:07;;;;;;;5.13;1.88;;;6.80;99.90;;;;;;5004218;28;20223;-48
2023/02/06 05:27:36;;;;;;;3.38;1.50;;;6.80;99.90;;;;;;5005025;28;20299;-47
2023/02/06 05:30:07;;;;;;;2.33;1.40;;;6.80;99.90;;;;;;5006657;28;20335;-46
2023/02/06 05:32:35;;;;;;;2.88;1.10;;;6.80;99.90;;;;;;5017668;28;20220;-46
2023/02/06 05:35:04;;;;;;;2.03;1.83;;;6.80;99.90;;;;;;5007669;28;20204;-45
2023/02/06 05:37:33;;;;;;;3.65;1.70;;;6.80;99.90;;;;;;5016246;28;20241;-48
2023/02/06 05:40:01;;;;;;;4.05;1.33;;;6.80;99.90;;;;;;5040322;28;20236;-47
2023/02/06 05:42:33;;;;;;;6.13;3.80;;;6.80;99.90;;;;;;5033230;28;20715;-47
2023/02/06 05:45:02;;;;;;;1.75;1.10;;;6.80;99.90;;;;;;5039306;28;20212;-46
2023/02/06 05:47:32;;;;;;;6.53;1.60;;;6.80;99.90;;;;;;5039440;28;20215;-47
2023/02/06 05:50:00;;;;;;;3.90;1.90;;;6.80;99.90;;;;;;5025852;28;20199;-46
2023/02/06 05:52:29;;;;;;;1.63;1.25;;;6.80;99.90;;;;;;5024288;28;20276;-46
2023/02/06 05:54:59;;;;;;;1.70;1.00;;;6.80;99.90;;;;;;5024648;28;20578;-47
2023/02/06 05:57:27;;;;;;;2.00;1.10;;;6.80;99.90;;;;;;5021951;28;20221;-47
2023/02/06 05:59:56;;;;;;;4.35;1.98;;;6.80;99.90;;;;;;5025890;28;20578;-46
2023/02/06 06:02:24;;;;;;;4.30;1.38;;;6.80;99.90;;;;;;5019695;28;20861;-46
2023/02/06 06:04:54;;;;;;;3.75;1.70;;;6.80;99.90;;;;;;5036703;28;20218;-48
2023/02/06 06:07:23;;;;;;;3.65;1.95;;;6.80;99.90;;;;;;5016412;28;20304;-47
2023/02/06 06:09:52;;;;;;;4.30;1.88;;;6.80;99.90;;;;;;5025970;28;20675;-46
2023/02/06 06:12:20;;;;;;;3.42;1.75;;;6.80;99.90;;;;;;5029928;28;20766;-46
2023/02/06 06:14:49;;;;;;;1.65;1.13;;;6.80;99.90;;;;;;5042192;28;20188;-47
2023/02/06 06:17:17;;;;;;;2.60;1.60;;;6.80;99.90;;;;;;5026973;28;20231;-47
2023/02/06 06:19:46;;;;;;;7.13;2.17;;;6.70;99.90;;;;;;5025933;28;20282;-48
2023/02/06 06:22:17;;;;;;;2.78;2.00;;;6.80;99.90;;;;;;5023600;28;20223;-46
2023/02/06 06:24:45;;;;;;;4.90;1.98;;;6.70;99.90;;;;;;5026092;28;20763;-48
2023/02/06 06:27:14;;;;;;;10.10;2.08;;;6.70;99.90;;;;;;5024528;28;20322;-47
2023/02/06 06:29:43;;;;;;;3.17;2.05;;;6.70;99.90;;;;;;5026519;28;20294;-47
2023/02/06 06:32:12;;;;;;;2.88;2.05;;;6.70;99.90;;;;;;5024482;28;20234;-48
2023/02/06 06:34:40;;;;;;;2.88;2.22;;;6.70;99.90;;;;;;5035957;28;20195;-47
2023/02/06 06:37:09;;;;;;;2.03;1.73;;;6.70;99.90;;;;;;5025961;28;20199;-47
2023/02/06 06:39:39;;;;;;;3.45;1.60;;;6.70;99.90;;;;;;5037456;28;20209;-47
2023/02/06 06:42:07;;;;;;;4.25;1.70;;;6.70;99.90;;;;;;5026537;28;20238;-47
2023/02/06 06:44:36;;;;;;;2.45;1.88;;;6.70;99.90;;;;;;5026211;28;20253;-48
2023/02/06 06:47:05;;;;;;;6.82;2.60;;;6.70;99.90;;;;;;5026305;28;20579;-46
2023/02/06 06:49:33;;;;;;;2.85;1.65;;;6.70;99.90;;;;;;5025029;28;20531;-48
2023/02/06 06:52:05;;;;;;;3.70;2.25;;;6.70;99.90;;;;;;5025496;28;20229;-47
2023/02/06 06:54:48;;;;;;;4.45;1.50;;;6.70;99.90;;;;;;5021097;28;20222;-46
2023/02/06 06:57:19;;;;;;;2.97;2.13;;;6.70;99.90;;;;;;5022378;28;20227;-46
2023/02/06 06:59:48;;;;;;;5.15;2.30;;;6.70;99.90;;;;;;5034936;28;20202;-46
2023/02/06 07:02:17;;;;;;;8.77;3.42;;;6.70;99.90;;;;;;5023877;28;20226;-45
2023/02/06 07:04:45;;;;;;;6.18;2.70;;;6.70;99.90;;;;;;5025127;28;20206;-48
2023/02/06 07:07:14;;;;;;;4.18;2.03;;;6.70;99.90;;;;;;5023742;28;20649;-47
2023/02/06 07:09:42;;;;;;;6.50;1.70;;;6.70;99.90;;;;;;5027454;28;20199;-47
2023/02/06 07:12:12;;;;;;;4.40;1.80;;;6.70;99.90;;;;;;5024535;28;20227;-47
2023/02/06 07:14:44;;;;;;;3.95;2.35;;;6.70;99.90;;;;;;5033569;28;20268;-47
2023/02/06 07:17:12;;;;;;;3.55;1.90;;;6.70;99.90;;;;;;5026812;28;20433;-46
2023/02/06 07:19:41;;;;;;;3.65;2.10;;;6.70;99.90;;;;;;5029792;28;20191;-47
2023/02/06 07:22:09;;;;;;;4.45;2.10;;;6.60;99.90;;;;;;5028955;28;20308;-46
2023/02/06 07:24:37;;;;;;;4.95;2.38;;;6.60;99.90;;;;;;5043884;28;20225;-45
2023/02/06 07:27:06;;;;;;;2.22;1.55;;;6.60;99.90;;;;;;5029278;28;20276;-47
2023/02/06 07:29:36;;;;;;;3.58;1.60;;;6.60;99.90;;;;;;5045534;28;20226;-47
2023/02/06 07:32:06;;;;;;;3.20;1.85;;;6.60;99.90;;;;;;5027014;28;20230;-48
2023/02/06 07:34:34;;;;;;;2.55;2.00;;;6.60;99.90;;;;;;5021572;28;20248;-46
2023/02/06 07:37:03;;;;;;;2.95;2.08;;;6.60;99.90;;;;;;5028505;28;20226;-46
2023/02/06 07:39:32;;;;;;;5.47;1.80;;;6.60;99.90;;;;;;5030207;28;20556;-46
2023/02/06 07:42:01;;;;;;;4.60;2.45;;;6.60;99.90;;;;;;5025821;28;20222;-46
2023/02/06 07:44:44;;;;;;;2.95;1.85;;;6.60;99.90;;;;;;5032531;28;20204;-46
2023/02/06 07:47:13;;;;;;;7.40;2.03;;;6.60;99.90;;;;;;5034879;28;20275;-47
2023/02/06 07:49:41;;;;;;;4.78;2.72;;;6.60;99.90;;;;;;5058097;28;20686;-47
2023/02/06 07:52:09;;;;;;;8.68;2.45;;;6.60;99.90;;;;;;5042490;28;20237;-47
2023/02/06 07:54:38;;;;;;;1.98;1.48;;;6.60;99.90;;;;;;5046326;28;20674;-47
2023/02/06 07:57:06;;;;;;;3.92;2.22;;;6.60;99.90;;;;;;5030544;28;20220;-48
2023/02/06 07:59:35;;;;;;;3.67;1.70;;;6.60;99.90;;;;;;5031658;28;20221;-46
2023/02/06 08:02:05;;;;;;;5.45;3.00;;;6.60;99.90;;;;;;5039609;28;20310;-48
2023/02/06 08:04:34;;;;;;;6.03;2.85;;;6.60;99.90;;;;;;5029956;28;20227;-46
2023/02/06 08:07:03;;;;;;;4.93;1.58;;;6.60;99.90;;;;;;5029228;28;20632;-47
2023/02/06 08:09:32;;;;;;;4.72;1.80;;;6.60;99.90;;;;;;5050308;28;20263;-47
2023/02/06 08:12:00;;;;;;;3.80;2.08;;;6.60;99.90;;;;;;5037290;28;20273;-46
2023/02/06 08:14:30;;;;;;;4.95;2.08;;;6.60;99.90;;;;;;5044767;28;20241;-46
2023/02/06 08:16:58;;;;;;;5.35;2.63;;;6.60;99.90;;;;;;5026539;28;20300;-47
2023/02/06 08:19:28;;;;;;;6.20;2.88;;;6.60;99.90;;;;;;5027153;28;20205;-48
2023/02/06 08:21:56;;;;;;;4.40;2.20;;;6.60;99.90;;;;;;5027271;28;20217;-47
2023/02/06 08:24:25;;;;;;;6.90;2.38;;;6.60;99.90;;;;;;5029078;28;20253;-47
2023/02/06 08:26:53;;;;;;;5.38;2.10;;;6.60;99.90;;;;;;5010597;28;20292;-46
2023/02/06 08:29:22;;;;;;;5.68;2.83;;;6.50;99.90;;;;;;5037050;28;20224;-48
2023/02/06 08:31:50;;;;;;;4.90;2.40;;;6.60;99.90;;;;;;5027646;28;20759;-48
2023/02/06 08:34:19;;;;;;;5.60;2.45;;;6.50;99.90;;;;;;5038534;28;20194;-46
2023/02/06 08:36:48;;;;;;;3.15;1.95;;;6.60;99.90;;;;;;5027638;28;20284;-47
2023/02/06 08:39:18;;;;;;;7.80;2.80;;;6.50;99.90;;;;;;5028466;28;20234;-46
2023/02/06 08:41:46;;;;;;;5.80;2.85;;;6.50;99.90;;;;;;5021124;28;20737;-46
2023/02/06 08:44:16;;;;;;;5.80;2.20;;;6.50;99.90;;;;;;5038337;28;20288;-48
2023/02/06 08:46:47;;;;;;;16.35;8.18;;;6.50;99.90;;;;;;5029225;28;20293;-48
2023/02/06 08:49:20;;;;;;;24.08;10.73;;;6.50;99.90;;;;;;5039710;28;20457;-47
2023/02/06 08:51:50;;;;;;;18.45;10.10;;;6.50;99.90;;;;;;5036161;28;20232;-46
2023/02/06 08:54:21;;;;;;;20.75;10.77;;;6.50;99.90;;;;;;5023656;28;20258;-47
2023/02/06 08:56:51;;;;;;;17.90;10.02;;;6.50;99.90;;;;;;5043095;28;20194;-46
2023/02/06 08:59:20;;;;;;;15.90;8.65;;;6.50;99.90;;;;;;5028304;28;20203;-46
2023/02/06 09:01:50;;;;;;;14.68;7.82;;;6.50;99.90;;;;;;5027688;28;20218;-45
2023/02/06 09:04:19;;;;;;;18.50;10.25;;;6.50;99.90;;;;;;5026419;28;20206;-47
2023/02/06 09:06:50;;;;;;;13.13;7.80;;;6.50;99.90;;;;;;5027238;28;20231;-46
2023/02/06 09:09:19;;;;;;;19.33;8.38;;;6.50;99.90;;;;;;5027110;28;20734;-46
2023/02/06 09:11:48;;;;;;;17.10;8.18;;;6.50;99.90;;;;;;5027778;28;20712;-46
2023/02/06 09:14:19;;;;;;;20.92;7.65;;;6.50;99.90;;;;;;5021442;28;20642;-46
2023/02/06 09:16:47;;;;;;;23.95;8.52;;;6.50;99.90;;;;;;5022228;28;20208;-47
2023/02/06 09:19:16;;;;;;;18.55;8.75;;;6.50;99.90;;;;;;5025185;28;20194;-46
2023/02/06 09:21:44;;;;;;;16.80;8.38;;;6.40;99.90;;;;;;5043339;28;20227;-46
2023/02/06 09:24:14;;;;;;;10.82;7.22;;;6.40;99.90;;;;;;5028037;28;20247;-46
2023/02/06 09:26:43;;;;;;;14.07;7.03;;;6.50;99.90;;;;;;5016096;28;20249;-46
2023/02/06 09:29:30;;;;;;;13.85;6.20;;;6.50;99.90;;;;;;5027177;28;20199;-46
2023/02/06 09:31:59;;;;;;;15.80;6.82;;;6.40;99.90;;;;;;5026772;28;20226;-47
2023/02/06 09:34:28;;;;;;;16.20;7.82;;;6.40;99.90;;;;;;5026226;28;20199;-48
2023/02/06 09:36:57;;;;;;;13.18;6.35;;;6.40;99.90;;;;;;5026094;28;21062;-47
2023/02/06 09:39:27;;;;;;;19.52;9.13;;;6.40;99.90;;;;;;5027185;28;21437;-48
2023/02/06 09:42:00;;;;;;;13.55;7.45;;;6.40;99.90;;;;;;5026932;28;20266;-46
2023/02/06 09:44:32;;;;;;;18.80;7.13;;;6.40;99.90;;;;;;5026522;28;20187;-46
2023/02/06 09:47:05;;;;;;;12.57;7.00;;;6.40;99.90;;;;;;5033109;28;20227;-47
2023/02/06 09:49:38;;;;;;;13.07;5.70;;;6.40;99.90;;;;;;5025462;28;20467;-46
2023/02/06 09:52:28;;;;;;;14.38;7.32;;;6.40;99.90;;;;;;5024015;28;20230;-46
2023/02/06 09:55:06;;;;;;;11.27;6.22;;;6.40;99.90;;;;;;5009826;28;20199;-45
2023/02/06 09:57:43;;;;;;;15.20;7.30;;;6.40;99.90;;;;;;5025446;28;20234;-46
2023/02/06 10:00:27;;;;;;;14.82;7.80;;;6.40;99.90;;;;;;5026582;28;20691;-46
2023/02/06 10:03:12;;;;;;;11.48;6.50;;;6.40;99.90;;;;;;5016057;28;20264;-48
2023/02/06 10:05:51;;;;;;;10.57;6.32;;;6.40;99.90;;;;;;5032345;28;20262;-46
2023/02/06 10:08:24;;;;;;;9.40;4.68;;;6.40;99.90;;;;;;5025569;28;20609;-46
2023/02/06 10:10:56;;;;;;;9.85;6.28;;;6.40;99.90;;;;;;5027717;28;20724;-46
2023/02/06 10:13:30;;;;;;;11.20;4.90;;;6.40;99.90;;;;;;5026610;28;20229;-46
2023/02/06 10:16:04;;;;;;;11.07;5.20;;;6.40;99.90;;;;;;5025577;28;20218;-46
2023/02/06 10:18:36;;;;;;;10.68;6.43;;;6.40;99.90;;;;;;5040842;28;20619;-47
2023/02/06 10:21:14;;;;;;;10.80;5.15;;;6.40;99.90;;;;;;5025681;28;20639;-46
2023/02/06 10:23:47;;;;;;;12.63;5.60;;;6.40;99.90;;;;;;5037424;28;20198;-46
2023/02/06 10:26:21;;;;;;;11.52;5.63;;;6.40;99.90;;;;;;5020458;28;21039;-46
2023/02/06 10:28:52;;;;;;;11.07;5.85;;;6.40;99.90;;;;;;5019409;28;20566;-45
2023/02/06 10:31:49;;;;;;;9.20;5.07;;;6.40;99.90;;;;;;5024736;28;20230;-47
2023/02/06 10:34:39;;;;;;;8.10;4.95;;;6.40;99.90;;;;;;5025443;28;20200;-45
2023/02/06 10:37:29;;;;;;;9.73;5.30;;;6.40;99.90;;;;;;5024975;28;20225;-47
2023/02/06 10:40:29;;;;;;;8.75;4.38;;;6.40;99.90;;;;;;5025671;28;20282;-47
2023/02/06 10:43:10;;;;;;;8.40;5.75;;;6.40;99.90;;;;;;5034670;28;20228;-46
2023/02/06 10:45:46;;;;;;;11.38;5.43;;;6.40;99.90;;;;;;5040454;28;20198;-46
2023/02/06 10:48:28;;;;;;;10.98;5.50;;;6.40;99.90;;;;;;5026150;28;20318;-47
2023/02/06 10:51:00;;;;;;;8.07;4.72;;;6.40;99.90;;;;;;5030078;28;20233;-47
2023/02/06 10:53:33;;;;;;;7.60;4.63;;;6.40;99.90;;;;;;5029006;28;20250;-46
2023/02/06 10:56:06;;;;;;;5.80;3.78;;;6.40;99.90;;;;;;5029615;28;20205;-46
2023/02/06 10:58:40;;;;;;;8.15;4.70;;;6.40;99.90;;;;;;5031955;28;20285;-47
2023/02/06 11:01:13;;;;;;;7.43;3.85;;;6.40;99.90;;;;;;5028843;28;20242;-51
2023/02/06 11:03:58;;;;;;;7.75;3.55;;;6.40;99.90;;;;;;5016972;28;20197;-45
2023/02/06 11:06:29;;;;;;;9.15;4.57;;;6.40;99.90;;;;;;5042092;28;20622;-46
2023/02/06 11:08:58;;;;;;;8.45;4.85;;;6.40;99.90;;;;;;5037670;28;20219;-46
2023/02/06 11:11:29;;;;;;;9.05;4.20;;;6.40;99.90;;;;;;5026306;28;20285;-47
2023/02/06 11:14:05;;;;;;;8.68;4.45;;;6.40;99.90;;;;;;5030495;28;20194;-46
2023/02/06 11:16:36;;;;;;;6.45;3.80;;;6.40;99.90;;;;;;5028984;28;20195;-45
2023/02/06 11:19:15;;;;;;;8.77;4.38;;;6.40;99.90;;;;;;5038851;28;20711;-46
2023/02/06 11:22:09;;;;;;;7.47;4.82;;;6.40;99.90;;;;;;5024157;28;20264;-47
2023/02/06 11:24:39;;;;;;;5.38;3.60;;;6.40;99.90;;;;;;5037507;28;20551;-46
2023/02/06 11:27:16;;;;;;;6.82;4.10;;;6.40;99.90;;;;;;5027901;28;20638;-46
2023/02/06 11:29:49;;;;;;;6.65;5.22;;;6.40;99.90;;;;;;5041309;28;20652;-45
2023/02/06 11:32:34;;;;;;;8.73;4.35;;;6.40;99.90;;;;;;5022300;28;20736;-47
2023/02/06 11:35:05;;;;;;;11.13;4.35;;;6.40;99.90;;;;;;5039540;28;20198;-47
2023/02/06 11:37:36;;;;;;;10.98;5.00;;;6.40;99.90;;;;;;5025104;28;20878;-47
2023/02/06 11:40:26;;;;;;;9.07;3.97;;;6.40;99.90;;;;;;5023921;28;20752;-47
2023/02/06 11:43:19;;;;;;;6.30;3.83;;;6.40;99.90;;;;;;5037387;28;20281;-45
2023/02/06 11:45:52;;;;;;;7.75;3.97;;;6.40;99.90;;;;;;5040765;28;20198;-46
2023/02/06 11:48:33;;;;;;;8.18;4.30;;;6.40;99.90;;;;;;5025215;28;20223;-46
2023/02/06 11:51:02;;;;;;;7.95;3.70;;;6.40;99.90;;;;;;5027919;28;20617;-47
2023/02/06 11:53:30;;;;;;;7.45;3.47;;;6.40;99.90;;;;;;5032569;28;20599;-46
2023/02/06 11:56:06;;;;;;;9.25;4.75;;;6.40;99.90;;;;;;5024015;28;20191;-46
2023/02/06 11:58:34;;;;;;;8.23;3.78;;;6.40;99.90;;;;;;5037598;28;20194;-46
2023/02/06 12:01:08;;;;;;;4.53;3.65;;;6.40;99.90;;;;;;5027238;28;20602;-47
2023/02/06 12:03:39;;;;;;;6.65;4.15;;;6.40;99.90;;;;;;5040083;28;20199;-47
2023/02/06 12:06:14;;;;;;;3.92;2.97;;;6.40;99.90;;;;;;5036493;28;20214;-47
2023/02/06 12:08:47;;;;;;;8.88;4.00;;;6.40;99.90;;;;;;5024029;28;20272;-47
2023/02/06 12:11:23;;;;;;;7.68;3.20;;;6.40;99.90;;;;;;5027832;28;20305;-45
2023/02/06 12:13:56;;;;;;;4.60;3.35;;;6.40;99.90;;;;;;5021917;28;20488;-46
2023/02/06 12:16:27;;;;;;;6.82;3.00;;;6.40;99.90;;;;;;5039713;28;20233;-46
2023/02/06 12:18:57;;;;;;;7.20;4.22;;;6.40;99.90;;;;;;5039138;28;20626;-46
2023/02/06 12:21:42;;;;;;;4.57;3.58;;;6.40;99.90;;;;;;5028490;28;20231;-46
2023/02/06 12:24:25;;;;;;;5.90;3.17;;;6.40;99.90;;;;;;5027293;28;20258;-48
2023/02/06 12:26:55;;;;;;;4.00;3.55;;;6.40;99.90;;;;;;5025501;28;20198;-46
2023/02/06 12:29:30;;;;;;;6.60;3.92;;;6.40;99.90;;;;;;5029264;28;20293;-46
2023/02/06 12:32:07;;;;;;;5.43;3.35;;;6.40;99.90;;;;;;5022116;28;20228;-45
2023/02/06 12:34:53;;;;;;;6.78;4.05;;;6.40;99.90;;;;;;5037824;28;20197;-47
2023/02/06 12:37:30;;;;;;;6.63;3.90;;;6.40;99.90;;;;;;5028076;28;20227;-46
2023/02/06 12:39:59;;;;;;;7.63;4.00;;;6.30;99.90;;;;;;5027954;28;20668;-47
2023/02/06 12:42:36;;;;;;;6.38;3.90;;;6.40;99.90;;;;;;5026657;28;20289;-46
2023/02/06 12:45:15;;;;;;;8.52;4.18;;;6.40;99.90;;;;;;5027395;28;20208;-48
2023/02/06 12:47:50;;;;;;;5.20;3.50;;;6.40;99.90;;;;;;5037744;28;20218;-47
2023/02/06 12:50:22;;;;;;;5.68;4.32;;;6.40;99.90;;;;;;5028314;28;20351;-47
2023/02/06 12:52:55;;;;;;;7.40;4.45;;;6.40;99.90;;;;;;5024120;28;20695;-46
2023/02/06 12:55:28;;;;;;;6.47;3.33;;;6.40;99.90;;;;;;5026250;28;20195;-45
2023/02/06 12:57:57;;;;;;;8.60;3.90;;;6.40;99.90;;;;;;5030695;28;20268;-45
2023/02/06 13:00:45;;;;;;;7.03;4.18;;;6.40;99.90;;;;;;5043912;28;20205;-46
2023/02/06 13:03:25;;;;;;;8.30;5.28;;;6.40;99.90;;;;;;5019526;28;20445;-46
2023/02/06 13:06:01;;;;;;;7.85;5.28;;;6.40;99.90;;;;;;5024233;28;20596;-47
2023/02/06 13:08:40;;;;;;;9.15;5.43;;;6.40;99.90;;;;;;5027386;28;20720;-47
2023/02/06 13:11:16;;;;;;;7.55;4.25;;;6.30;99.90;;;;;;5002990;28;20297;-46
2023/02/06 13:13:45;;;;;;;6.82;3.78;;;6.30;99.90;;;;;;5043557;28;20201;-47
2023/02/06 13:16:13;;;;;;;6.97;4.18;;;6.30;99.90;;;;;;5022970;28;20202;-46
2023/02/06 13:19:04;;;;;;;7.20;4.50;;;6.30;99.90;;;;;;5028215;28;20286;-46
2023/02/06 13:21:35;;;;;;;8.00;4.40;;;6.30;99.90;;;;;;5027721;28;20574;-46
2023/02/06 13:24:18;;;;;;;7.78;4.15;;;6.30;99.90;;;;;;5041075;28;20209;-46